Terminal Aerodrome Forecast
Issued by NWS Cleveland, OH

Home | Current Version | Previous Version | Graphics & Text | Print | Product List | Glossary On
Versions: 1 2 3 4 5 6 7 8 9 10 11 12 13 14 15 16 17 18 19 20 21 22 23 24 25 26
875
FTUS41 KCLE 091120
TAFTOL
TAF
KTOL 091120Z 0912/1012 20008KT P6SM OVC050
     FM091500 22009KT P6SM -SHSN SCT015 OVC040
     FM091700 24010KT 5SM -SHSN BKN015
      TEMPO 0918/0921 2SM -SN
     FM092200 28008KT P6SM OVC015
     FM100300 29009KT P6SM OVC025
     FM100600 27008KT P6SM BKN050=

USA.gov is the U.S. government's official web portal to all federal, state and local government web resources and services.